createdAt,value
2019-05-22T00:02:01.394Z,97400.69
2019-05-22T00:04:38.803Z,97405.58
2019-05-22T00:07:12.551Z,97403.71
2019-05-22T00:09:46.279Z,97406.48
2019-05-22T00:12:19.474Z,97405.15
2019-05-22T00:14:53.072Z,97403.30
2019-05-22T00:17:28.925Z,97405.64
2019-05-22T00:20:04.805Z,97401.13
2019-05-22T00:22:37.368Z,97400.03
2019-05-22T00:25:15.054Z,97395.25
2019-05-22T00:27:51.303Z,97400.82
2019-05-22T00:30:26.061Z,97401.13
2019-05-22T00:33:00.440Z,97403.84
2019-05-22T00:35:32.450Z,97402.56
2019-05-22T00:38:07.406Z,97399.12
2019-05-22T00:40:55.416Z,97405.52
2019-05-22T00:43:34.333Z,97400.77
2019-05-22T00:46:09.590Z,97401.34
2019-05-22T00:48:42.224Z,97409.54
2019-05-22T00:51:23.015Z,97407.20
2019-05-22T00:54:12.663Z,97397.14
2019-05-22T00:56:48.535Z,97402.70
2019-05-22T00:59:22.548Z,97406.40
2019-05-22T01:02:05.825Z,97406.63
2019-05-22T01:04:42.519Z,97416.72
2019-05-22T01:07:18.342Z,97406.70
2019-05-22T01:09:52.444Z,97414.91
2019-05-22T01:12:33.769Z,97409.88
2019-05-22T01:15:08.373Z,97410.41
2019-05-22T01:17:41.988Z,97406.97
2019-05-22T01:20:16.266Z,97405.42
2019-05-22T01:22:49.299Z,97405.16
2019-05-22T01:25:24.849Z,97404.89
2019-05-22T01:27:58.319Z,97406.75
2019-05-22T01:30:41.845Z,97411.20
2019-05-22T01:33:16.954Z,97408.33
2019-05-22T01:35:53.612Z,97415.73
2019-05-22T01:38:26.109Z,97421.29
2019-05-22T01:41:02.537Z,97423.41
2019-05-22T01:43:34.460Z,97418.64
2019-05-22T01:46:06.945Z,97417.06
2019-05-22T01:48:41.587Z,97414.42
2019-05-22T01:51:14.882Z,97423.94
2019-05-22T01:53:46.958Z,97417.09
2019-05-22T01:56:20.166Z,97409.46
2019-05-22T01:58:52.550Z,97405.27
2019-05-22T02:01:26.246Z,97410.28
2019-05-22T02:03:59.525Z,97410.55
2019-05-22T02:06:31.353Z,97415.57
2019-05-22T02:09:24.832Z,97415.34
2019-05-22T02:12:08.017Z,97411.34
2019-05-22T02:14:44.886Z,97406.58
2019-05-22T02:17:19.575Z,97412.42
2019-05-22T02:19:51.042Z,97401.86
2019-05-22T02:22:23.674Z,97406.08
2019-05-22T02:24:55.615Z,97404.79
2019-05-22T02:27:28.453Z,97407.14
2019-05-22T02:30:01.899Z,97409.26
2019-05-22T02:32:38.126Z,97400.56
2019-05-22T02:35:11.731Z,97410.28
2019-05-22T02:37:43.575Z,97410.05
2019-05-22T02:40:28.487Z,97397.89
2019-05-22T02:43:00.234Z,97405.00
2019-05-22T02:45:32.428Z,97408.67
2019-05-22T02:48:08.745Z,97405.27
2019-05-22T02:50:42.236Z,97409.98
2019-05-22T02:53:17.362Z,97408.14
2019-05-22T02:55:50.714Z,97410.25
2019-05-22T02:58:23.525Z,97407.08
2019-05-22T03:01:05.755Z,97411.81
2019-05-22T03:03:37.955Z,97417.09
2019-05-22T03:06:12.964Z,97407.31
2019-05-22T03:09:08.811Z,97407.34
2019-05-22T03:11:47.000Z,97409.46
2019-05-22T03:14:20.469Z,97410.75
2019-05-22T03:16:56.720Z,97407.05
2019-05-22T03:19:43.074Z,97405.20
2019-05-22T03:22:32.247Z,97402.29
2019-05-22T03:25:08.546Z,97395.95
2019-05-22T03:27:50.465Z,97400.67
2019-05-22T03:30:34.891Z,97392.77
2019-05-22T03:33:10.391Z,97389.63
2019-05-22T03:35:52.189Z,97395.91
2019-05-22T03:45:00.753Z,97393.34
2019-05-22T03:47:33.717Z,97390.95
2019-05-22T03:50:08.078Z,97394.66
2019-05-22T03:52:39.716Z,97395.45
2019-05-22T03:55:13.465Z,97396.73
2019-05-22T03:57:45.863Z,97396.20
2019-05-22T04:00:20.050Z,97402.55
2019-05-22T04:02:55.247Z,97397.23
2019-05-22T04:05:28.042Z,97400.40
2019-05-22T04:08:00.592Z,97401.46
2019-05-22T04:10:55.713Z,97401.56
2019-05-22T04:13:29.876Z,97402.59
2019-05-22T04:16:02.844Z,97400.73
2019-05-22T04:18:36.036Z,97409.95
2019-05-22T04:21:09.069Z,97408.14
2019-05-22T04:23:41.910Z,97412.90
2019-05-22T04:26:15.643Z,97414.75
2019-05-22T04:28:53.351Z,97413.92
2019-05-22T04:31:52.100Z,97413.16
2019-05-22T04:34:25.639Z,97416.83
2019-05-22T04:36:57.853Z,97410.81
2019-05-22T04:39:32.728Z,97417.42
2019-05-22T04:42:07.465Z,97409.98
2019-05-22T04:44:42.688Z,97417.92
2019-05-22T04:47:15.254Z,97423.20
2019-05-22T04:50:04.479Z,97415.77
2019-05-22T04:52:43.442Z,97423.44
2019-05-22T04:55:17.476Z,97412.34
2019-05-22T04:57:49.750Z,97415.02
2019-05-22T05:00:22.862Z,97422.64
2019-05-22T05:02:54.985Z,97417.39
2019-05-22T05:05:29.482Z,97409.72
2019-05-22T05:08:02.467Z,97419.97
2019-05-22T05:10:34.705Z,97415.21
2019-05-22T05:13:06.293Z,97412.59
2019-05-22T05:15:37.908Z,97416.30
2019-05-22T05:18:11.042Z,97419.94
2019-05-22T05:20:42.706Z,97418.08
2019-05-22T05:23:14.857Z,97420.38
2019-05-22T05:25:46.416Z,97419.53
2019-05-22T05:28:19.646Z,97421.08
2019-05-22T05:30:52.604Z,97423.37
2019-05-22T05:33:26.137Z,97424.41
2019-05-22T05:35:58.766Z,97415.16
2019-05-22T05:38:36.215Z,97412.14
2019-05-22T05:41:08.244Z,97425.16
2019-05-22T05:43:40.199Z,97421.06
2019-05-22T05:46:11.927Z,97423.19
2019-05-22T05:48:44.490Z,97433.09
2019-05-22T05:51:20.819Z,97428.45
2019-05-22T05:54:06.311Z,97418.20
2019-05-22T05:56:42.177Z,97420.92
2019-05-22T05:59:18.143Z,97423.63
2019-05-22T06:01:52.392Z,97431.69
2019-05-22T06:04:34.633Z,97424.78
2019-05-22T06:07:19.948Z,97424.34
2019-05-22T06:09:55.923Z,97425.67
2019-05-22T06:12:28.106Z,97428.21
2019-05-22T06:14:59.643Z,97428.59
2019-05-22T06:18:10.750Z,97430.08
2019-05-22T06:20:43.906Z,97426.48
2019-05-22T06:23:30.471Z,97433.66
2019-05-22T06:26:05.589Z,97433.02
2019-05-22T06:28:42.474Z,97429.24
2019-05-22T06:31:42.598Z,97436.35
2019-05-22T06:34:14.578Z,97442.30
2019-05-22T06:36:45.912Z,97445.56
2019-05-22T06:39:17.770Z,97441.56
2019-05-22T06:41:52.384Z,97437.64
2019-05-22T06:44:33.837Z,97441.42
2019-05-22T06:47:07.133Z,97442.22
2019-05-22T06:49:42.104Z,97439.65
2019-05-22T06:52:14.759Z,97441.55
2019-05-22T06:54:46.805Z,97441.12
2019-05-22T06:57:19.962Z,97445.80
2019-05-22T07:00:11.363Z,97441.64
2019-05-22T07:02:28.235Z,97446.94
2019-05-22T07:04:59.515Z,97451.77
2019-05-22T07:07:31.280Z,97461.52
2019-05-22T07:10:03.201Z,97452.72
2019-05-22T07:12:40.146Z,97460.07
2019-05-22T07:15:22.456Z,97450.27
2019-05-22T07:17:55.335Z,97444.95
2019-05-22T07:20:29.612Z,97457.13
2019-05-22T07:23:03.942Z,97453.92
2019-05-22T07:25:39.847Z,97457.05
2019-05-22T07:28:13.749Z,97459.13
2019-05-22T07:30:48.855Z,97457.30
2019-05-22T07:33:25.904Z,97455.08
2019-05-22T07:36:10.124Z,97461.91
2019-05-22T07:38:38.860Z,97452.03
2019-05-22T07:41:11.906Z,97449.70
2019-05-22T07:43:46.755Z,97455.05
2019-05-22T07:46:30.948Z,97455.99
2019-05-22T07:49:04.384Z,97444.28
2019-05-22T07:51:53.166Z,97446.78
2019-05-22T07:54:11.835Z,97445.30
2019-05-22T07:56:45.934Z,97448.66
2019-05-22T07:59:18.519Z,97448.36
2019-05-22T08:01:53.098Z,97452.09
2019-05-22T08:04:26.431Z,97459.52
2019-05-22T08:06:58.575Z,97457.16
2019-05-22T08:09:36.099Z,97450.77
2019-05-22T08:12:14.174Z,97456.23
2019-05-22T08:14:46.515Z,97461.25
2019-05-22T08:17:21.106Z,97448.39
2019-05-22T08:19:52.874Z,97455.41
2019-05-22T08:22:26.573Z,97458.79
2019-05-22T08:24:58.305Z,97467.44
2019-05-22T08:27:30.203Z,97464.17
2019-05-22T08:30:01.910Z,97453.97
2019-05-22T08:32:34.797Z,97456.25
2019-05-22T08:35:11.023Z,97457.45
2019-05-22T08:37:42.603Z,97467.69
2019-05-22T08:40:17.946Z,97466.97
2019-05-22T08:42:49.905Z,97467.57
2019-05-22T08:45:22.772Z,97471.88
2019-05-22T08:47:54.478Z,97469.87
2019-05-22T08:50:27.624Z,97471.19
2019-05-22T08:52:59.810Z,97466.97
2019-05-22T08:55:37.948Z,97463.19
2019-05-22T08:58:10.930Z,97472.91
2019-05-22T09:00:43.288Z,97469.26
2019-05-22T09:03:15.818Z,97477.50
2019-05-22T09:05:47.412Z,97473.75
2019-05-22T09:08:19.459Z,97485.27
2019-05-22T09:10:50.995Z,97469.13
2019-05-22T09:13:22.546Z,97471.81
2019-05-22T09:15:54.039Z,97465.59
2019-05-22T09:18:26.248Z,97475.86
2019-05-22T09:20:59.022Z,97477.52
2019-05-22T09:23:33.190Z,97472.78
2019-05-22T09:26:06.047Z,97475.75
2019-05-22T09:28:38.728Z,97480.17
2019-05-22T09:31:10.227Z,97474.50
2019-05-22T09:33:42.992Z,97477.05
2019-05-22T09:36:17.357Z,97483.33
2019-05-22T09:38:52.212Z,97485.50
2019-05-22T09:41:31.007Z,97491.80
2019-05-22T09:44:14.738Z,97493.63
2019-05-22T09:46:45.688Z,97490.55
2019-05-22T09:49:23.618Z,97486.83
2019-05-22T09:51:54.985Z,97485.94
2019-05-22T09:54:28.595Z,97486.84
2019-05-22T09:57:02.331Z,97489.20
2019-05-22T09:59:34.502Z,97492.91
2019-05-22T10:02:07.983Z,97494.83
2019-05-22T10:04:39.614Z,97498.66
2019-05-22T10:07:12.459Z,97490.74
2019-05-22T10:09:44.576Z,97494.10
2019-05-22T10:12:15.974Z,97494.20
2019-05-22T10:14:47.430Z,97489.94
2019-05-22T10:17:19.151Z,97491.85
2019-05-22T10:19:50.898Z,97490.58
2019-05-22T10:22:24.155Z,97491.69
2019-05-22T10:25:14.082Z,97487.59
2019-05-22T10:27:29.743Z,97486.69
2019-05-22T10:30:01.949Z,97483.06
2019-05-22T10:32:33.905Z,97488.84
2019-05-22T10:35:08.730Z,97487.29
2019-05-22T10:37:41.331Z,97489.56
2019-05-22T10:40:15.211Z,97482.44
2019-05-22T10:42:46.815Z,97485.16
2019-05-22T10:45:18.351Z,97477.52
2019-05-22T10:47:50.785Z,97481.61
2019-05-22T10:50:22.443Z,97477.75
2019-05-22T10:52:55.181Z,97480.65
2019-05-22T10:55:27.362Z,97470.89
2019-05-22T10:57:58.871Z,97475.11
2019-05-22T11:00:31.668Z,97470.98
2019-05-22T11:03:04.392Z,97470.92
2019-05-22T11:05:37.870Z,97467.75
2019-05-22T11:08:11.039Z,97470.36
2019-05-22T11:10:45.251Z,97463.97
2019-05-22T11:13:18.513Z,97462.27
2019-05-22T11:15:52.497Z,97453.46
2019-05-22T11:18:24.404Z,97455.75
2019-05-22T11:21:02.706Z,97453.98
2019-05-22T11:23:50.576Z,97445.95
2019-05-22T11:26:09.203Z,97452.83
2019-05-22T11:28:50.958Z,97449.48
2019-05-22T11:31:27.267Z,97449.97
2019-05-22T11:34:00.043Z,97448.52
2019-05-22T11:36:33.107Z,97445.66
2019-05-22T11:39:08.098Z,97439.64
2019-05-22T11:41:46.354Z,97444.05
2019-05-22T11:44:24.286Z,97445.97
2019-05-22T11:46:56.607Z,97445.94
2019-05-22T11:49:32.095Z,97442.36
2019-05-22T11:52:08.865Z,97434.91
2019-05-22T11:54:44.923Z,97436.41
2019-05-22T11:57:19.382Z,97433.37
2019-05-22T12:00:08.599Z,97432.59
2019-05-22T12:02:38.091Z,97431.61
2019-05-22T12:05:12.085Z,97433.69
2019-05-22T12:07:45.372Z,97425.30
2019-05-22T12:10:21.252Z,97421.36
2019-05-22T12:12:55.406Z,97422.22
2019-05-22T12:15:32.696Z,97421.42
2019-05-22T12:18:07.291Z,97415.50
2019-05-22T12:20:40.477Z,97407.27
2019-05-22T12:23:13.553Z,97402.41
2019-05-22T12:25:46.285Z,97397.91
2019-05-22T12:28:19.180Z,97395.73
2019-05-22T12:30:51.475Z,97397.59
2019-05-22T12:33:23.639Z,97394.39
2019-05-22T12:35:54.950Z,97396.26
2019-05-22T12:38:27.574Z,97398.41
2019-05-22T12:40:59.424Z,97396.67
2019-05-22T12:43:32.019Z,97402.89
2019-05-22T12:46:04.505Z,97410.20
2019-05-22T12:48:38.810Z,97404.25
2019-05-22T12:51:10.889Z,97409.54
2019-05-22T12:53:45.251Z,97403.23
2019-05-22T12:56:19.705Z,97399.70
2019-05-22T12:58:54.566Z,97399.16
2019-05-22T13:01:29.608Z,97393.36
2019-05-22T13:04:02.888Z,97392.53
2019-05-22T13:06:35.634Z,97392.53
2019-05-22T13:09:13.153Z,97385.58
2019-05-22T13:11:46.488Z,97385.21
2019-05-22T13:14:19.582Z,97377.30
2019-05-22T13:16:51.547Z,97384.12
2019-05-22T13:19:24.689Z,97389.44
2019-05-22T13:21:58.350Z,97391.77
2019-05-22T13:27:22.863Z,97393.41
2019-05-22T13:29:56.166Z,97382.55
2019-05-22T13:32:29.260Z,97391.66
2019-05-22T13:35:02.297Z,97386.98
2019-05-22T13:37:33.800Z,97383.08
2019-05-22T13:40:26.137Z,97386.52
2019-05-22T13:42:43.026Z,97394.83
2019-05-22T13:45:28.807Z,97384.52
2019-05-22T13:47:50.967Z,97388.77
2019-05-22T13:50:28.678Z,97384.95
2019-05-22T13:53:03.257Z,97380.64
2019-05-22T13:55:35.737Z,97369.47
2019-05-22T13:58:10.110Z,97363.96
2019-05-22T14:00:44.194Z,97356.44
2019-05-22T14:03:16.077Z,97360.02
2019-05-22T14:05:47.582Z,97358.38
2019-05-22T14:08:19.617Z,97349.97
2019-05-22T14:10:53.143Z,97355.59
2019-05-22T14:13:27.242Z,97358.81
2019-05-22T14:15:58.683Z,97363.61
2019-05-22T14:18:31.536Z,97373.81
2019-05-22T14:21:03.181Z,97375.11
2019-05-22T14:23:34.584Z,97375.59
2019-05-22T14:26:07.524Z,97381.27
2019-05-22T14:28:39.644Z,97375.71
2019-05-22T14:31:10.940Z,97381.80
2019-05-22T14:33:42.848Z,97382.03
2019-05-22T14:36:19.474Z,97380.59
2019-05-22T14:38:55.805Z,97374.89
2019-05-22T14:41:27.054Z,97370.64
2019-05-22T14:43:58.651Z,97380.72
2019-05-22T14:46:29.923Z,97378.37
2019-05-22T14:49:01.257Z,97377.02
2019-05-22T14:51:33.361Z,97383.11
2019-05-22T14:54:07.257Z,97375.16
2019-05-22T14:56:39.270Z,97371.83
2019-05-22T14:59:12.129Z,97369.23
2019-05-22T15:01:43.627Z,97372.30
2019-05-22T15:04:15.376Z,97374.02
2019-05-22T15:06:47.236Z,97377.05
2019-05-22T15:09:18.704Z,97373.75
2019-05-22T15:11:50.807Z,97367.77
2019-05-22T15:14:23.306Z,97367.17
2019-05-22T15:16:54.606Z,97369.73
2019-05-22T15:19:26.412Z,97369.09
2019-05-22T15:21:58.003Z,97371.13
2019-05-22T15:24:30.955Z,97371.37
2019-05-22T15:27:05.057Z,97372.23
2019-05-22T15:29:36.651Z,97367.54
2019-05-22T15:32:09.421Z,97366.33
2019-05-22T15:34:41.441Z,97369.67
2019-05-22T15:37:15.368Z,97373.99
2019-05-22T15:39:47.531Z,97371.56
2019-05-22T15:42:43.288Z,97369.73
2019-05-22T15:45:31.983Z,97377.54
2019-05-22T15:48:05.433Z,97372.13
2019-05-22T15:50:37.605Z,97372.75
2019-05-22T15:53:14.939Z,97369.45
2019-05-22T15:55:47.803Z,97370.54
2019-05-22T15:58:20.756Z,97366.47
2019-05-22T16:00:55.306Z,97372.30
2019-05-22T16:03:29.167Z,97368.28
2019-05-22T16:06:01.874Z,97375.17
2019-05-22T16:08:34.281Z,97378.48
2019-05-22T16:11:11.244Z,97375.49
2019-05-22T16:13:43.812Z,97376.56
2019-05-22T16:16:17.429Z,97376.08
2019-05-22T16:18:54.082Z,97372.08
2019-05-22T16:21:27.664Z,97378.37
2019-05-22T16:24:00.015Z,97376.83
2019-05-22T16:26:32.646Z,97382.29
2019-05-22T16:29:04.832Z,97385.75
2019-05-22T16:31:39.630Z,97386.86
2019-05-22T16:34:12.762Z,97389.14
2019-05-22T16:36:46.983Z,97393.39
2019-05-22T16:39:20.629Z,97386.05
2019-05-22T16:41:52.542Z,97389.55
2019-05-22T16:44:24.596Z,97393.11
2019-05-22T16:46:58.156Z,97390.30
2019-05-22T16:49:30.026Z,97393.70
2019-05-22T16:52:04.145Z,97395.24
2019-05-22T16:54:36.103Z,97395.19
2019-05-22T16:57:08.752Z,97392.45
2019-05-22T16:59:42.044Z,97388.94
2019-05-22T17:02:17.240Z,97384.95
2019-05-22T17:04:50.479Z,97376.84
2019-05-22T17:07:21.986Z,97371.28
2019-05-22T17:09:55.340Z,97358.64
2019-05-22T17:12:29.830Z,97359.88
2019-05-22T17:15:02.433Z,97358.32
2019-05-22T17:17:34.872Z,97359.05
2019-05-22T17:20:10.442Z,97360.48
2019-05-22T17:22:42.173Z,97367.14
2019-05-22T17:25:15.909Z,97362.69
2019-05-22T17:27:47.400Z,97363.89
2019-05-22T17:30:21.627Z,97366.72
2019-05-22T17:32:55.983Z,97372.22
2019-05-22T17:35:33.046Z,97371.14
2019-05-22T17:38:07.280Z,97373.86
2019-05-22T17:40:40.606Z,97376.23
2019-05-22T17:43:15.131Z,97377.41
2019-05-22T17:45:48.091Z,97375.55
2019-05-22T17:48:22.057Z,97383.67
2019-05-22T17:50:55.461Z,97385.87
2019-05-22T17:53:28.380Z,97380.59
2019-05-22T17:55:59.979Z,97378.92
2019-05-22T17:58:31.934Z,97380.84
2019-05-22T18:01:05.119Z,97381.92
2019-05-22T18:03:37.445Z,97390.66
2019-05-22T18:06:09.920Z,97400.22
2019-05-22T18:08:41.762Z,97397.34
2019-05-22T18:11:13.092Z,97396.63
2019-05-22T18:13:59.619Z,97402.26
2019-05-22T18:16:32.984Z,97403.44
2019-05-22T18:19:05.699Z,97411.42
2019-05-22T18:21:38.725Z,97411.38
2019-05-22T18:26:46.043Z,97406.00
2019-05-22T18:29:23.426Z,97401.48
2019-05-22T18:31:57.912Z,97406.94
2019-05-22T18:34:29.415Z,97405.17
2019-05-22T18:37:02.970Z,97411.73
2019-05-22T18:39:39.843Z,97411.88
2019-05-22T18:42:14.486Z,97406.64
2019-05-22T18:44:49.144Z,97409.26
2019-05-22T18:47:22.661Z,97410.31
2019-05-22T18:49:55.412Z,97414.34
2019-05-22T18:52:41.081Z,97417.43
2019-05-22T18:55:11.120Z,97421.42
2019-05-22T18:57:43.394Z,97417.14
2019-05-22T19:00:25.489Z,97416.53
2019-05-22T19:11:46.036Z,97431.00
2019-05-22T19:14:20.201Z,97442.58
2019-05-22T19:16:52.071Z,97441.79
2019-05-22T19:19:23.551Z,97448.03
2019-05-22T19:21:55.488Z,97457.94
2019-05-22T19:24:28.375Z,97451.51
2019-05-22T19:27:01.150Z,97455.59
2019-05-22T19:29:34.453Z,97460.09
2019-05-22T19:32:08.406Z,97463.41
2019-05-22T19:34:43.687Z,97458.76
2019-05-22T19:37:15.418Z,97471.95
2019-05-22T19:39:50.112Z,97463.85
2019-05-22T19:42:23.122Z,97473.22
2019-05-22T19:44:57.194Z,97478.28
2019-05-22T19:51:07.167Z,97477.48
2019-05-22T19:53:41.525Z,97470.97
2019-05-22T19:56:15.164Z,97474.19
2019-05-22T19:58:47.319Z,97474.56
2019-05-22T20:01:33.807Z,97473.07
2019-05-22T20:04:11.968Z,97475.56
2019-05-22T20:06:46.099Z,97478.22
2019-05-22T20:09:20.371Z,97477.93
2019-05-22T20:11:53.866Z,97486.14
2019-05-22T20:14:26.222Z,97491.78
2019-05-22T20:16:58.479Z,97486.39
2019-05-22T20:19:30.645Z,97490.55
2019-05-22T20:22:02.522Z,97492.39
2019-05-22T20:24:34.895Z,97499.41
2019-05-22T20:27:09.911Z,97501.91
2019-05-22T20:29:42.280Z,97503.49
2019-05-22T20:32:15.781Z,97510.16
2019-05-22T20:34:48.794Z,97505.36
2019-05-22T20:37:23.086Z,97505.16
2019-05-22T20:39:56.329Z,97506.31
2019-05-22T20:42:30.115Z,97509.17
2019-05-22T20:45:02.154Z,97516.34
2019-05-22T20:47:34.458Z,97515.46
2019-05-22T20:50:09.475Z,97518.00
2019-05-22T20:52:42.757Z,97516.83
2019-05-22T20:55:16.341Z,97516.37
2019-05-22T20:57:48.795Z,97512.95
2019-05-22T21:00:23.622Z,97512.18
2019-05-22T21:03:06.849Z,97515.41
2019-05-22T21:05:39.465Z,97515.70
2019-05-22T21:08:13.822Z,97519.20
2019-05-22T21:10:48.169Z,97521.34
2019-05-22T21:13:21.497Z,97526.84
2019-05-22T21:15:54.641Z,97518.96
2019-05-22T21:18:31.430Z,97523.64
2019-05-22T21:21:03.443Z,97522.05
2019-05-22T21:23:36.463Z,97521.17
2019-05-22T21:26:10.169Z,97523.83
2019-05-22T21:28:43.464Z,97525.74
2019-05-22T21:31:16.514Z,97530.60
2019-05-22T21:33:49.086Z,97538.34
2019-05-22T21:36:21.175Z,97539.21
2019-05-22T21:38:52.758Z,97534.66
2019-05-22T21:41:28.427Z,97544.19
2019-05-22T21:44:02.583Z,97538.90
2019-05-22T21:46:35.402Z,97529.41
2019-05-22T21:49:09.713Z,97529.41
2019-05-22T21:51:44.442Z,97529.95
2019-05-22T21:54:17.467Z,97534.50
2019-05-22T21:56:51.651Z,97541.61
2019-05-22T21:59:24.190Z,97545.13
2019-05-22T22:02:03.983Z,97544.97
2019-05-22T22:04:37.801Z,97545.03
2019-05-22T22:07:11.309Z,97545.08
2019-05-22T22:09:45.208Z,97540.33
2019-05-22T22:12:21.141Z,97551.72
2019-05-22T22:14:54.292Z,97549.07
2019-05-22T22:17:27.980Z,97555.69
2019-05-22T22:20:03.780Z,97546.41
2019-05-22T22:22:36.327Z,97557.00
2019-05-22T22:25:15.051Z,97553.57
2019-05-22T22:27:47.389Z,97557.27
2019-05-22T22:30:30.578Z,97553.55
2019-05-22T22:33:11.862Z,97558.85
2019-05-22T22:35:44.648Z,97548.75
2019-05-22T22:38:20.144Z,97554.30
2019-05-22T22:40:54.176Z,97548.73
2019-05-22T22:43:30.792Z,97553.25
2019-05-22T22:46:09.477Z,97550.33
2019-05-22T22:48:42.264Z,97553.18
2019-05-22T22:51:16.867Z,97551.55
2019-05-22T22:53:49.622Z,97557.74
2019-05-22T22:56:43.963Z,97556.16
2019-05-22T22:59:17.487Z,97556.73
2019-05-22T23:01:53.169Z,97557.44
2019-05-22T23:04:27.428Z,97552.13
2019-05-22T23:07:05.144Z,97553.94
2019-05-22T23:09:40.750Z,97551.05
2019-05-22T23:12:14.675Z,97553.98
2019-05-22T23:14:53.244Z,97549.58
2019-05-22T23:17:28.528Z,97555.69
2019-05-22T23:19:58.790Z,97552.19
2019-05-22T23:22:29.511Z,97549.81
2019-05-22T23:25:00.832Z,97553.03
2019-05-22T23:27:33.449Z,97547.75
2019-05-22T23:30:09.235Z,97543.71
2019-05-22T23:32:42.833Z,97549.64
2019-05-22T23:35:16.039Z,97542.50
2019-05-22T23:37:47.709Z,97551.50
2019-05-22T23:40:27.082Z,97553.35
2019-05-22T23:43:02.296Z,97552.28
2019-05-22T23:45:35.244Z,97556.52
2019-05-22T23:48:12.582Z,97554.41
2019-05-22T23:50:47.475Z,97549.91
2019-05-22T23:53:23.816Z,97552.56
2019-05-22T23:55:59.029Z,97555.47
2019-05-22T23:58:32.342Z,97551.51
